createdAt,value
2019-04-20T00:01:29.255Z,25.88
2019-04-20T00:03:58.961Z,26.87
2019-04-20T00:06:37.727Z,22.60
2019-04-20T00:09:11.838Z,25.55
2019-04-20T00:11:50.225Z,26.55
2019-04-20T00:14:14.503Z,25.02
2019-04-20T00:16:48.337Z,25.50
2019-04-20T00:19:26.250Z,23.95
2019-04-20T00:22:00.482Z,24.65
2019-04-20T00:24:33.266Z,23.50
2019-04-20T00:27:22.082Z,23.65
2019-04-20T00:29:56.191Z,23.12
2019-04-20T00:34:18.257Z,26.30
2019-04-20T00:36:43.326Z,25.68
2019-04-20T00:39:17.223Z,26.60
2019-04-20T00:41:55.001Z,23.75
2019-04-20T00:44:26.268Z,23.35
2019-04-20T00:47:04.925Z,24.05
2019-04-20T00:49:40.681Z,24.98
2019-04-20T00:54:37.258Z,24.25
2019-04-20T00:57:20.377Z,24.75
2019-04-20T01:00:02.640Z,23.15
2019-04-20T01:02:29.608Z,24.50
2019-04-20T01:05:04.594Z,24.18
2019-04-20T01:07:37.448Z,23.95
2019-04-20T01:10:00.508Z,24.02
2019-04-20T01:12:34.920Z,23.50
2019-04-20T01:15:10.809Z,23.62
2019-04-20T01:17:41.689Z,23.27
2019-04-20T01:20:13.612Z,21.15
2019-04-20T01:22:53.589Z,23.00
2019-04-20T01:25:27.264Z,21.75
2019-04-20T01:28:10.441Z,19.42
2019-04-20T01:30:35.310Z,19.17
2019-04-20T01:33:17.606Z,21.65
2019-04-20T01:35:53.581Z,22.70
2019-04-20T01:38:26.686Z,20.55
2019-04-20T01:40:42.706Z,20.40
2019-04-20T01:43:16.242Z,20.15
2019-04-20T01:45:52.326Z,18.95
2019-04-20T01:48:27.473Z,20.35
2019-04-20T01:51:05.963Z,18.70
2019-04-20T01:53:44.269Z,20.30
2019-04-20T01:56:17.079Z,19.82
2019-04-20T01:58:52.444Z,20.72
2019-04-20T02:01:17.843Z,19.17
2019-04-20T02:03:48.966Z,18.57
2019-04-20T02:06:25.087Z,19.95
2019-04-20T02:09:02.196Z,20.23
2019-04-20T02:11:34.285Z,19.65
2019-04-20T02:14:05.204Z,19.40
2019-04-20T02:16:41.815Z,19.82
2019-04-20T02:19:22.994Z,21.12
2019-04-20T02:21:55.966Z,18.92
2019-04-20T02:24:14.485Z,19.92
2019-04-20T02:26:45.197Z,20.10
2019-04-20T02:29:43.047Z,20.10
2019-04-20T02:32:23.945Z,21.97
2019-04-20T02:37:52.940Z,20.50
2019-04-20T02:42:44.798Z,21.05
2019-04-20T02:45:28.233Z,23.00
2019-04-20T02:47:53.174Z,23.75
2019-04-20T02:50:19.147Z,20.68
2019-04-20T02:58:05.314Z,20.20
2019-04-20T03:00:44.754Z,22.82
2019-04-20T03:02:55.918Z,20.48
2019-04-20T03:05:30.747Z,21.57
2019-04-20T03:08:08.528Z,20.57
2019-04-20T03:10:56.717Z,21.93
2019-04-20T03:13:18.815Z,21.90
2019-04-20T03:15:48.635Z,21.15
2019-04-20T03:18:27.963Z,22.25
2019-04-20T03:21:08.125Z,21.80
2019-04-20T03:23:47.632Z,21.05
2019-04-20T03:26:13.872Z,22.07
2019-04-20T03:28:44.092Z,21.80
2019-04-20T03:31:58.574Z,22.62
2019-04-20T03:34:15.246Z,22.35
2019-04-20T03:36:35.198Z,23.07
2019-04-20T03:39:04.192Z,23.20
2019-04-20T03:41:30.214Z,23.83
2019-04-20T03:44:05.667Z,21.52
2019-04-20T03:46:37.607Z,24.10
2019-04-20T03:49:20.077Z,24.37
2019-04-20T03:51:57.318Z,23.77
2019-04-20T03:54:24.992Z,22.55
2019-04-20T03:57:15.263Z,24.37
2019-04-20T03:59:37.000Z,24.60
2019-04-20T04:02:43.343Z,23.65
2019-04-20T04:04:49.452Z,24.02
2019-04-20T04:07:16.690Z,25.17
2019-04-20T04:09:57.569Z,24.00
2019-04-20T04:12:23.654Z,23.92
2019-04-20T04:14:47.495Z,25.30
2019-04-20T04:17:26.902Z,24.35
2019-04-20T04:19:59.960Z,23.90
2019-04-20T04:22:43.351Z,23.67
2019-04-20T04:25:18.428Z,24.27
2019-04-20T04:27:54.663Z,22.48
2019-04-20T04:30:27.936Z,24.15
2019-04-20T04:33:37.906Z,25.00
2019-04-20T04:35:35.069Z,25.62
2019-04-20T04:38:14.298Z,24.15
2019-04-20T04:40:55.725Z,23.02
2019-04-20T04:43:19.728Z,22.87
2019-04-20T04:45:35.195Z,24.77
2019-04-20T04:48:14.786Z,24.05
2019-04-20T04:50:48.361Z,24.45
2019-04-20T04:53:28.462Z,25.08
2019-04-20T04:55:54.923Z,25.90
2019-04-20T04:58:19.659Z,25.52
2019-04-20T05:00:56.569Z,24.77
2019-04-20T05:03:44.775Z,24.67
2019-04-20T05:06:18.642Z,24.43
2019-04-20T05:08:41.986Z,25.48
2019-04-20T05:11:09.080Z,24.37
2019-04-20T05:13:50.573Z,24.10
2019-04-20T05:16:37.467Z,24.70
2019-04-20T05:19:13.557Z,24.92
2019-04-20T05:21:50.012Z,24.70
2019-04-20T05:24:20.713Z,25.27
2019-04-20T05:26:58.310Z,26.95
2019-04-20T05:29:15.455Z,26.23
2019-04-20T05:31:46.349Z,25.82
2019-04-20T05:34:32.211Z,25.25
2019-04-20T05:37:05.923Z,25.92
2019-04-20T05:39:45.783Z,27.87
2019-04-20T05:42:18.798Z,31.62
2019-04-20T05:44:50.030Z,33.18
2019-04-20T05:47:16.946Z,34.08
2019-04-20T05:49:45.423Z,37.00
2019-04-20T05:52:42.578Z,38.15
2019-04-20T05:54:56.177Z,39.95
2019-04-20T05:57:32.975Z,33.35
2019-04-20T06:00:12.609Z,39.45
2019-04-20T06:02:39.347Z,34.65
2019-04-20T06:05:10.134Z,37.63
2019-04-20T06:10:20.638Z,34.88
2019-04-20T06:12:45.908Z,31.82
2019-04-20T06:15:12.957Z,31.90
2019-04-20T06:17:50.309Z,33.05
2019-04-20T06:20:33.960Z,32.73
2019-04-20T06:23:05.960Z,31.82
2019-04-20T06:25:47.673Z,32.20
2019-04-20T06:28:06.679Z,30.80
2019-04-20T06:30:37.219Z,31.40
2019-04-20T06:33:24.585Z,29.85
2019-04-20T06:36:33.853Z,29.85
2019-04-20T06:39:13.382Z,28.47
2019-04-20T06:41:57.122Z,29.30
2019-04-20T06:44:14.797Z,29.85
2019-04-20T06:46:53.674Z,30.48
2019-04-20T06:51:52.725Z,29.18
2019-04-20T06:54:20.939Z,25.80
2019-04-20T06:57:07.238Z,26.05
2019-04-20T06:59:43.427Z,25.15
2019-04-20T07:02:20.237Z,25.75
2019-04-20T07:04:58.102Z,28.83
2019-04-20T07:07:19.618Z,27.37
2019-04-20T07:10:06.814Z,26.80
2019-04-20T07:12:24.004Z,26.27
2019-04-20T07:14:54.124Z,26.70
2019-04-20T07:20:11.584Z,27.45
2019-04-20T07:22:46.005Z,26.93
2019-04-20T07:25:26.245Z,26.02
2019-04-20T07:27:53.767Z,25.68
2019-04-20T07:30:32.470Z,27.02
2019-04-20T07:33:08.917Z,23.83
2019-04-20T07:35:35.457Z,24.77
2019-04-20T07:40:55.825Z,24.60
2019-04-20T07:43:33.363Z,23.83
2019-04-20T07:46:09.341Z,24.57
2019-04-20T07:48:45.312Z,24.32
2019-04-20T07:51:08.181Z,23.35
2019-04-20T07:53:40.326Z,24.57
2019-04-20T07:56:25.359Z,23.02
2019-04-20T07:58:46.064Z,23.92
2019-04-20T08:01:38.878Z,25.05
2019-04-20T08:04:07.734Z,24.45
2019-04-20T08:06:30.819Z,25.23
2019-04-20T08:09:12.911Z,24.12
2019-04-20T08:11:59.104Z,22.17
2019-04-20T08:14:27.198Z,23.00
2019-04-20T08:17:13.793Z,24.77
2019-04-20T08:19:28.639Z,24.98
2019-04-20T08:22:10.314Z,24.63
2019-04-20T08:24:37.397Z,25.02
2019-04-20T08:26:59.054Z,26.50
2019-04-20T08:29:44.208Z,24.02
2019-04-20T08:32:23.677Z,27.30
2019-04-20T08:35:03.190Z,33.48
2019-04-20T08:37:35.314Z,26.05
2019-04-20T08:40:15.017Z,26.52
2019-04-20T08:42:49.785Z,26.97
2019-04-20T08:45:16.333Z,26.12
2019-04-20T08:47:57.060Z,26.65
2019-04-20T08:50:35.613Z,25.27
2019-04-20T08:53:17.350Z,28.10
2019-04-20T08:55:40.108Z,33.53
2019-04-20T08:57:54.394Z,26.62
2019-04-20T09:00:34.458Z,31.42
2019-04-20T09:03:09.329Z,32.23
2019-04-20T09:05:45.813Z,40.55
2019-04-20T09:08:18.827Z,42.33
2019-04-20T09:11:08.359Z,41.57
2019-04-20T09:13:34.288Z,39.83
2019-04-20T09:16:04.800Z,39.20
2019-04-20T09:18:49.395Z,38.73
2019-04-20T09:21:27.118Z,32.50
2019-04-20T09:24:11.869Z,36.42
2019-04-20T09:26:41.339Z,32.23
2019-04-20T09:29:12.630Z,29.35
2019-04-20T09:31:47.095Z,31.85
2019-04-20T09:34:44.876Z,22.20
2019-04-20T09:37:16.467Z,23.10
2019-04-20T09:39:33.814Z,86.70
2019-04-20T09:42:01.911Z,102.10
2019-04-20T09:44:45.110Z,44.85
2019-04-20T09:47:14.169Z,38.10
2019-04-20T09:49:57.996Z,40.85
2019-04-20T09:52:32.269Z,121.33
2019-04-20T09:55:06.978Z,271.13
2019-04-20T09:57:43.915Z,191.37
2019-04-20T10:00:16.745Z,118.77
2019-04-20T10:02:34.789Z,54.23
2019-04-20T10:05:07.373Z,35.00
2019-04-20T10:07:40.967Z,25.90
2019-04-20T10:10:23.886Z,29.42
2019-04-20T10:12:48.299Z,33.02
2019-04-20T10:15:23.400Z,29.20
2019-04-20T10:17:53.947Z,73.92
2019-04-20T10:20:31.229Z,157.35
2019-04-20T10:22:58.449Z,64.60
2019-04-20T10:25:30.861Z,63.40
2019-04-20T10:28:03.459Z,53.65
2019-04-20T10:30:34.732Z,42.75
2019-04-20T10:33:07.674Z,53.20
2019-04-20T10:35:39.826Z,59.45
2019-04-20T10:38:13.769Z,60.78
2019-04-20T10:40:55.814Z,51.40
2019-04-20T10:43:17.958Z,47.30
2019-04-20T10:48:21.409Z,52.30
2019-04-20T10:50:52.860Z,72.90
2019-04-20T10:53:25.898Z,72.32
2019-04-20T10:55:57.792Z,70.42
2019-04-20T10:58:29.596Z,79.85
2019-04-20T11:01:01.800Z,88.78
2019-04-20T11:03:34.603Z,84.47
2019-04-20T11:06:06.792Z,77.90
2019-04-20T11:08:40.257Z,59.42
2019-04-20T11:11:18.002Z,59.42
2019-04-20T11:13:47.577Z,59.00
2019-04-20T11:16:20.768Z,52.15
2019-04-20T11:18:53.594Z,40.10
2019-04-20T11:21:26.345Z,33.05
2019-04-20T11:23:58.427Z,24.12
2019-04-20T11:26:39.934Z,26.30
2019-04-20T11:29:16.094Z,37.60
2019-04-20T11:31:51.533Z,48.00
2019-04-20T11:34:29.907Z,56.37
2019-04-20T11:37:01.374Z,59.65
2019-04-20T11:39:34.981Z,57.38
2019-04-20T11:42:08.047Z,38.20
2019-04-20T11:44:42.968Z,22.22
2019-04-20T11:47:14.830Z,19.20
2019-04-20T11:49:47.258Z,23.80
2019-04-20T11:52:21.395Z,28.38
2019-04-20T11:55:00.184Z,27.42
2019-04-20T11:57:31.573Z,29.32
2019-04-20T12:00:03.609Z,43.68
2019-04-20T12:02:42.243Z,44.35
2019-04-20T12:05:23.894Z,51.02
2019-04-20T12:07:51.061Z,54.60
2019-04-20T12:10:27.793Z,43.38
2019-04-20T12:13:01.650Z,27.02
2019-04-20T12:15:36.794Z,19.57
2019-04-20T12:18:07.639Z,16.25
2019-04-20T12:20:42.857Z,15.70
2019-04-20T12:23:16.448Z,15.58
2019-04-20T12:25:52.446Z,15.85
2019-04-20T12:28:25.615Z,16.50
2019-04-20T12:31:04.167Z,14.68
2019-04-20T12:33:30.779Z,16.65
2019-04-20T12:36:02.515Z,16.02
2019-04-20T12:38:37.067Z,16.17
2019-04-20T12:41:12.411Z,16.95
2019-04-20T12:43:44.090Z,18.80
2019-04-20T12:46:19.778Z,20.97
2019-04-20T12:48:51.597Z,22.00
2019-04-20T12:51:31.477Z,22.93
2019-04-20T12:53:58.451Z,27.98
2019-04-20T12:56:30.981Z,40.85
2019-04-20T12:59:03.390Z,45.30
2019-04-20T13:01:39.615Z,40.25
2019-04-20T13:04:18.796Z,35.00
2019-04-20T13:06:54.835Z,28.50
2019-04-20T13:09:24.199Z,32.67
2019-04-20T13:12:11.688Z,37.23
2019-04-20T13:14:46.429Z,46.68
2019-04-20T13:17:22.066Z,40.60
2019-04-20T13:20:01.635Z,29.40
2019-04-20T13:22:34.936Z,29.10
2019-04-20T13:25:08.133Z,31.07
2019-04-20T13:27:43.293Z,35.23
2019-04-20T13:30:16.660Z,31.12
2019-04-20T13:32:51.697Z,38.55
2019-04-20T13:35:34.303Z,33.65
2019-04-20T13:38:07.867Z,32.67
2019-04-20T13:40:41.792Z,35.10
2019-04-20T13:43:17.623Z,47.85
2019-04-20T13:45:50.959Z,52.35
2019-04-20T13:48:27.033Z,49.80
2019-04-20T13:50:58.339Z,41.75
2019-04-20T13:56:03.697Z,31.02
2019-04-20T13:58:38.173Z,34.03
2019-04-20T14:01:12.598Z,42.93
2019-04-20T14:03:45.289Z,38.25
2019-04-20T14:06:16.969Z,29.30
2019-04-20T14:08:51.477Z,30.48
2019-04-20T14:11:25.179Z,32.25
2019-04-20T14:14:07.847Z,33.10
2019-04-20T14:16:41.248Z,33.38
2019-04-20T14:19:16.778Z,31.25
2019-04-20T14:21:52.180Z,25.97
2019-04-20T14:24:24.695Z,24.35
2019-04-20T14:26:56.973Z,24.70
2019-04-20T14:29:28.630Z,21.80
2019-04-20T14:32:10.256Z,30.10
2019-04-20T14:34:44.798Z,31.97
2019-04-20T14:37:17.182Z,32.00
2019-04-20T14:39:50.294Z,24.23
2019-04-20T14:42:33.097Z,23.83
2019-04-20T14:44:55.495Z,22.52
2019-04-20T14:47:27.888Z,23.57
2019-04-20T14:50:02.940Z,26.52
2019-04-20T14:52:33.526Z,27.22
2019-04-20T14:55:07.824Z,30.68
2019-04-20T14:57:43.601Z,27.93
2019-04-20T15:00:17.698Z,21.23
2019-04-20T15:02:50.058Z,24.30
2019-04-20T15:05:23.286Z,35.63
2019-04-20T15:08:00.645Z,71.22
2019-04-20T15:10:32.981Z,58.15
2019-04-20T15:13:06.301Z,81.08
2019-04-20T15:15:44.844Z,61.37
2019-04-20T15:18:17.997Z,39.38
2019-04-20T15:20:51.341Z,40.33
2019-04-20T15:23:25.840Z,38.33
2019-04-20T15:26:00.338Z,31.15
2019-04-20T15:28:42.404Z,34.90
2019-04-20T15:31:14.528Z,26.65
2019-04-20T15:36:24.229Z,25.27
2019-04-20T15:39:05.250Z,24.35
2019-04-20T15:41:39.208Z,23.85
2019-04-20T15:44:11.280Z,22.98
2019-04-20T15:46:45.591Z,23.22
2019-04-20T15:49:17.927Z,23.30
2019-04-20T15:51:50.360Z,22.55
2019-04-20T15:57:19.626Z,21.35
2019-04-20T15:59:50.597Z,21.77
2019-04-20T16:02:25.183Z,21.95
2019-04-20T16:05:10.207Z,21.50
2019-04-20T16:07:52.459Z,21.75
2019-04-20T16:13:37.634Z,24.80
2019-04-20T16:16:09.935Z,32.15
2019-04-20T16:18:41.219Z,31.50
2019-04-20T16:26:21.837Z,22.48
2019-04-20T16:28:53.859Z,21.68
2019-04-20T16:31:32.745Z,23.47
2019-04-20T16:34:05.296Z,23.18
2019-04-20T16:36:38.846Z,23.90
2019-04-20T16:39:11.134Z,24.00
2019-04-20T16:41:46.898Z,24.37
2019-04-20T16:44:18.777Z,25.85
2019-04-20T16:46:50.404Z,28.83
2019-04-20T16:49:23.351Z,33.15
2019-04-20T16:52:00.624Z,30.92
2019-04-20T16:54:32.630Z,32.17
2019-04-20T16:57:07.709Z,35.88
2019-04-20T16:59:41.398Z,28.15
2019-04-20T17:02:19.933Z,28.30
2019-04-20T17:04:53.306Z,26.42
2019-04-20T17:07:37.166Z,24.98
2019-04-20T17:10:11.917Z,28.67
2019-04-20T17:12:44.099Z,27.10
2019-04-20T17:15:23.694Z,23.87
2019-04-20T17:17:58.580Z,21.93
2019-04-20T17:20:40.976Z,24.40
2019-04-20T17:23:13.395Z,24.50
2019-04-20T17:25:46.016Z,22.05
2019-04-20T17:28:18.609Z,22.75
2019-04-20T17:30:55.146Z,21.68
2019-04-20T17:33:30.196Z,21.12
2019-04-20T17:36:12.388Z,20.70
2019-04-20T17:38:54.370Z,21.37
2019-04-20T17:41:44.641Z,21.12
2019-04-20T17:44:23.825Z,21.95
2019-04-20T17:46:45.014Z,21.80
2019-04-20T17:49:25.645Z,20.25
2019-04-20T17:52:15.994Z,22.17
2019-04-20T17:54:29.485Z,21.35
2019-04-20T17:57:02.332Z,20.92
2019-04-20T17:59:34.846Z,20.62
2019-04-20T18:02:20.808Z,26.85
2019-04-20T18:05:09.923Z,24.92
2019-04-20T18:07:42.516Z,22.80
2019-04-20T18:10:12.291Z,23.38
2019-04-20T18:12:32.838Z,20.92
2019-04-20T18:15:13.969Z,22.37
2019-04-20T18:17:56.171Z,20.65
2019-04-20T18:20:14.783Z,22.10
2019-04-20T18:22:53.198Z,21.45
2019-04-20T18:25:53.398Z,21.35
2019-04-20T18:28:14.584Z,21.42
2019-04-20T18:30:43.692Z,21.30
2019-04-20T18:33:17.798Z,20.72
2019-04-20T18:35:49.489Z,21.07
2019-04-20T18:38:22.064Z,21.60
2019-04-20T18:41:02.671Z,21.93
2019-04-20T18:43:45.828Z,21.30
2019-04-20T18:46:25.947Z,22.10
2019-04-20T18:49:08.530Z,22.80
2019-04-20T18:51:23.855Z,21.52
2019-04-20T18:54:00.596Z,21.12
2019-04-20T18:56:40.321Z,22.10
2019-04-20T18:59:07.096Z,23.02
2019-04-20T19:01:46.684Z,21.37
2019-04-20T19:04:17.774Z,23.87
2019-04-20T19:06:50.033Z,22.80
2019-04-20T19:09:30.508Z,22.35
2019-04-20T19:12:04.077Z,22.45
2019-04-20T19:14:40.077Z,22.98
2019-04-20T19:17:20.375Z,20.85
2019-04-20T19:19:48.282Z,23.65
2019-04-20T19:22:17.516Z,24.27
2019-04-20T19:24:49.749Z,24.07
2019-04-20T19:27:30.287Z,23.98
2019-04-20T19:30:05.581Z,22.58
2019-04-20T19:32:45.218Z,23.87
2019-04-20T19:35:27.417Z,24.55
2019-04-20T19:37:56.943Z,23.02
2019-04-20T19:40:36.103Z,23.12
2019-04-20T19:43:08.476Z,23.57
2019-04-20T19:46:00.098Z,22.55
2019-04-20T19:48:28.178Z,23.20
2019-04-20T19:51:13.929Z,22.70
2019-04-20T19:53:38.135Z,25.05
2019-04-20T19:56:03.543Z,23.27
2019-04-20T19:58:34.479Z,23.73
2019-04-20T20:00:59.279Z,24.27
2019-04-20T20:03:29.956Z,24.25
2019-04-20T20:06:01.692Z,22.75
2019-04-20T20:08:36.402Z,25.02
2019-04-20T20:11:18.498Z,24.85
2019-04-20T20:13:48.565Z,22.50
2019-04-20T20:16:27.119Z,23.32
2019-04-20T20:19:01.494Z,23.35
2019-04-20T20:21:35.996Z,23.02
2019-04-20T20:23:56.458Z,24.40
2019-04-20T20:26:36.184Z,24.82
2019-04-20T20:29:11.906Z,22.48
2019-04-20T20:31:55.600Z,23.18
2019-04-20T20:34:24.403Z,23.35
2019-04-20T20:36:54.922Z,24.02
2019-04-20T20:39:24.159Z,23.45
2019-04-20T20:42:01.595Z,23.98
2019-04-20T20:44:38.921Z,24.67
2019-04-20T20:47:31.330Z,24.75
2019-04-20T20:50:08.750Z,23.92
2019-04-20T20:52:32.222Z,23.95
2019-04-20T20:55:03.798Z,23.57
2019-04-20T20:57:42.417Z,24.00
2019-04-20T21:00:07.473Z,24.05
2019-04-20T21:02:44.042Z,22.07
2019-04-20T21:05:09.289Z,23.77
2019-04-20T21:07:51.025Z,24.20
2019-04-20T21:10:26.874Z,22.50
2019-04-20T21:12:57.951Z,23.05
2019-04-20T21:15:28.569Z,23.75
2019-04-20T21:18:24.800Z,23.18
2019-04-20T21:20:55.218Z,23.05
2019-04-20T21:23:25.452Z,22.73
2019-04-20T21:25:51.051Z,22.93
2019-04-20T21:28:22.748Z,24.12
2019-04-20T21:30:57.822Z,23.47
2019-04-20T21:33:36.733Z,22.98
2019-04-20T21:36:09.198Z,24.05
2019-04-20T21:38:42.910Z,23.60
2019-04-20T21:41:16.865Z,22.55
2019-04-20T21:43:48.194Z,22.02
2019-04-20T21:46:20.802Z,22.70
2019-04-20T21:49:09.773Z,24.18
2019-04-20T21:51:43.646Z,24.07
2019-04-20T21:54:05.526Z,22.90
2019-04-20T21:56:38.318Z,22.42
2019-04-20T21:59:16.464Z,22.90
2019-04-20T22:01:53.882Z,23.25
2019-04-20T22:04:16.425Z,23.38
2019-04-20T22:06:50.021Z,24.07
2019-04-20T22:09:34.727Z,24.50
2019-04-20T22:11:58.188Z,24.37
2019-04-20T22:14:33.634Z,24.25
2019-04-20T22:17:05.258Z,23.98
2019-04-20T22:19:52.939Z,24.45
2019-04-20T22:22:42.432Z,24.23
2019-04-20T22:25:23.142Z,26.15
2019-04-20T22:27:37.641Z,24.32
2019-04-20T22:30:10.326Z,24.82
2019-04-20T22:32:48.079Z,24.85
2019-04-20T22:35:22.759Z,25.48
2019-04-20T22:38:03.630Z,24.05
2019-04-20T22:40:33.280Z,25.17
2019-04-20T22:43:04.236Z,25.37
2019-04-20T22:45:42.226Z,24.40
2019-04-20T22:48:12.420Z,25.27
